createdAt,value
2023-05-01T00:00:24.893Z,4.50
2023-05-01T00:02:52.325Z,4.41
2023-05-01T00:05:18.879Z,4.43
2023-05-01T00:07:45.503Z,4.37
2023-05-01T00:10:12.298Z,4.42
2023-05-01T00:12:38.826Z,4.30
2023-05-01T00:15:06.848Z,4.26
2023-05-01T00:17:33.543Z,4.22
2023-05-01T00:20:00.102Z,4.13
2023-05-01T00:22:45.063Z,4.15
2023-05-01T00:25:37.358Z,4.10
2023-05-01T00:28:03.988Z,4.08
2023-05-01T00:30:30.396Z,3.99
2023-05-01T00:32:57.100Z,4.02
2023-05-01T00:35:23.542Z,3.89
2023-05-01T00:37:49.917Z,3.95
2023-05-01T00:40:16.460Z,3.87
2023-05-01T00:42:42.933Z,3.82
2023-05-01T00:45:10.010Z,3.87
2023-05-01T00:47:36.694Z,3.83
2023-05-01T00:50:03.992Z,3.86
2023-05-01T00:52:30.638Z,3.86
2023-05-01T00:54:57.869Z,3.75
2023-05-01T00:57:25.566Z,3.69
2023-05-01T00:59:52.023Z,3.68
2023-05-01T01:02:18.368Z,3.60
2023-05-01T01:04:46.877Z,3.58
2023-05-01T01:07:34.877Z,3.55
2023-05-01T01:10:05.802Z,3.51
2023-05-01T01:12:39.585Z,3.50
2023-05-01T01:15:24.081Z,3.41
2023-05-01T01:18:18.002Z,3.39
2023-05-01T01:20:55.366Z,3.43
2023-05-01T01:23:40.365Z,3.40
2023-05-01T01:26:32.074Z,3.35
2023-05-01T01:29:21.836Z,3.31
2023-05-01T01:32:26.998Z,3.25
2023-05-01T01:35:02.435Z,3.22
2023-05-01T01:37:43.176Z,3.13
2023-05-01T01:40:22.677Z,3.15
2023-05-01T01:42:59.536Z,3.06
2023-05-01T01:45:33.247Z,3.08
2023-05-01T01:48:01.103Z,3.08
2023-05-01T01:50:28.479Z,3.05
2023-05-01T01:52:58.749Z,3.03
2023-05-01T01:55:27.748Z,3.00
2023-05-01T01:57:54.442Z,2.99
2023-05-01T02:00:22.008Z,2.94
2023-05-01T02:02:49.422Z,2.89
2023-05-01T02:05:18.315Z,2.94
2023-05-01T02:07:47.288Z,2.89
2023-05-01T02:10:14.935Z,2.93
2023-05-01T02:12:44.917Z,2.87
2023-05-01T02:15:11.661Z,2.87
2023-05-01T02:17:39.171Z,2.85
2023-05-01T02:20:07.965Z,2.80
2023-05-01T02:22:34.634Z,2.81
2023-05-01T02:25:01.952Z,2.80
2023-05-01T02:27:31.687Z,2.76
2023-05-01T02:29:58.801Z,2.74
2023-05-01T02:32:26.363Z,2.67
2023-05-01T02:34:52.990Z,2.65
2023-05-01T02:37:20.031Z,2.63
2023-05-01T02:39:46.610Z,2.55
2023-05-01T02:42:15.917Z,2.53
2023-05-01T02:44:49.142Z,2.54
2023-05-01T02:47:18.428Z,2.50
2023-05-01T02:49:46.966Z,2.46
2023-05-01T02:52:17.781Z,2.41
2023-05-01T02:54:45.437Z,2.41
2023-05-01T02:57:12.859Z,2.44
2023-05-01T02:59:42.505Z,2.41
2023-05-01T03:02:09.162Z,2.43
2023-05-01T03:04:35.782Z,2.43
2023-05-01T03:07:02.225Z,2.43
2023-05-01T03:09:28.786Z,2.43
2023-05-01T03:11:55.484Z,2.42
2023-05-01T03:14:22.267Z,2.42
2023-05-01T03:16:49.019Z,2.48
2023-05-01T03:19:16.667Z,2.45
2023-05-01T03:21:43.052Z,2.42
2023-05-01T03:24:10.153Z,2.40
2023-05-01T03:26:36.771Z,2.37
2023-05-01T03:29:03.880Z,2.37
2023-05-01T03:31:30.273Z,2.32
2023-05-01T03:33:56.687Z,2.37
2023-05-01T03:36:23.597Z,2.37
2023-05-01T03:38:50.141Z,2.30
2023-05-01T03:41:16.708Z,2.26
2023-05-01T03:43:43.188Z,2.21
2023-05-01T03:46:10.714Z,2.26
2023-05-01T03:48:52.982Z,2.25
2023-05-01T03:51:19.540Z,2.22
2023-05-01T03:53:46.017Z,2.16
2023-05-01T03:56:12.482Z,2.22
2023-05-01T03:58:39.105Z,2.25
2023-05-01T04:01:05.998Z,2.33
2023-05-01T04:03:32.588Z,2.35
2023-05-01T04:05:59.527Z,2.39
2023-05-01T04:08:26.019Z,2.34
2023-05-01T04:10:52.902Z,2.45
2023-05-01T04:13:19.542Z,2.51
2023-05-01T04:15:48.985Z,2.56
2023-05-01T04:18:15.903Z,2.73
2023-05-01T04:20:42.342Z,2.75
2023-05-01T04:23:09.574Z,2.80
2023-05-01T04:25:36.809Z,2.94
2023-05-01T04:28:03.357Z,3.01
2023-05-01T04:30:31.168Z,3.11
2023-05-01T04:33:00.493Z,3.23
2023-05-01T04:35:28.071Z,3.30
2023-05-01T04:37:54.849Z,3.41
2023-05-01T04:40:21.319Z,3.57
2023-05-01T04:42:48.277Z,3.55
2023-05-01T04:45:14.833Z,3.50
2023-05-01T04:47:41.481Z,3.69
2023-05-01T04:50:08.344Z,3.79
2023-05-01T04:52:35.954Z,3.81
2023-05-01T04:55:03.707Z,3.98
2023-05-01T04:57:30.161Z,4.11
2023-05-01T04:59:56.892Z,4.13
2023-05-01T05:02:24.004Z,4.23
2023-05-01T05:04:51.040Z,4.26
2023-05-01T05:07:17.841Z,4.40
2023-05-01T05:09:44.301Z,4.58
2023-05-01T05:12:10.954Z,4.66
2023-05-01T05:14:37.463Z,4.88
2023-05-01T05:17:03.959Z,5.13
2023-05-01T05:19:30.389Z,5.39
2023-05-01T05:21:57.946Z,5.38
2023-05-01T05:24:24.428Z,5.46
2023-05-01T05:26:51.185Z,5.34
2023-05-01T05:29:17.765Z,5.74
2023-05-01T05:31:44.189Z,6.20
2023-05-01T05:34:11.376Z,6.58
2023-05-01T05:36:37.889Z,6.51
2023-05-01T05:39:04.359Z,6.75
2023-05-01T05:41:31.104Z,7.50
2023-05-01T05:43:57.612Z,7.71
2023-05-01T05:46:24.647Z,8.32
2023-05-01T05:48:51.747Z,9.36
2023-05-01T05:51:19.344Z,9.09
2023-05-01T05:53:45.881Z,8.87
2023-05-01T05:56:12.814Z,9.92
2023-05-01T05:58:39.322Z,9.97
2023-05-01T06:01:07.079Z,10.16
2023-05-01T06:03:34.281Z,10.56
2023-05-01T06:06:01.306Z,10.98
2023-05-01T06:08:27.869Z,11.01
2023-05-01T06:10:54.485Z,11.29
2023-05-01T06:13:20.945Z,11.95
2023-05-01T06:15:47.531Z,12.53
2023-05-01T06:18:14.286Z,13.69
2023-05-01T06:20:41.033Z,14.75
2023-05-01T06:23:09.471Z,15.11
2023-05-01T06:25:37.211Z,14.53
2023-05-01T06:28:04.163Z,14.80
2023-05-01T06:30:30.892Z,15.35
2023-05-01T06:32:57.427Z,15.69
2023-05-01T06:35:24.467Z,14.65
2023-05-01T06:37:50.975Z,15.37
2023-05-01T06:40:17.528Z,14.49
2023-05-01T06:42:44.043Z,15.72
2023-05-01T06:45:10.656Z,15.95
2023-05-01T06:47:37.299Z,16.84
2023-05-01T06:50:05.673Z,17.93
2023-05-01T06:52:32.477Z,17.18
2023-05-01T06:54:58.906Z,18.33
2023-05-01T06:57:25.874Z,17.80
2023-05-01T06:59:52.450Z,19.29
2023-05-01T07:02:18.963Z,19.77
2023-05-01T07:04:45.808Z,19.44
2023-05-01T07:07:12.490Z,18.49
2023-05-01T07:09:38.935Z,19.00
2023-05-01T07:12:06.297Z,19.56
2023-05-01T07:14:34.773Z,18.21
2023-05-01T07:17:02.213Z,18.43
2023-05-01T07:19:28.884Z,17.56
2023-05-01T07:21:55.422Z,16.84
2023-05-01T07:24:21.893Z,16.14
2023-05-01T07:26:48.385Z,16.24
2023-05-01T07:29:16.399Z,16.40
2023-05-01T07:31:43.872Z,16.82
2023-05-01T07:34:10.556Z,17.29
2023-05-01T07:36:37.564Z,16.66
2023-05-01T07:39:04.329Z,16.34
2023-05-01T07:41:31.505Z,15.97
2023-05-01T07:44:01.179Z,15.51
2023-05-01T07:46:28.252Z,15.73
2023-05-01T07:48:54.928Z,16.26
2023-05-01T07:51:21.665Z,16.49
2023-05-01T07:53:48.731Z,16.87
2023-05-01T07:56:15.250Z,16.89
2023-05-01T07:58:42.621Z,16.52
2023-05-01T08:01:09.732Z,18.11
2023-05-01T08:03:36.600Z,19.24
2023-05-01T08:06:03.404Z,18.56
2023-05-01T08:08:29.927Z,18.33
2023-05-01T08:10:56.543Z,18.98
2023-05-01T08:13:23.279Z,19.21
2023-05-01T08:15:50.035Z,18.68
2023-05-01T08:18:20.503Z,18.94
2023-05-01T08:20:48.435Z,18.63
2023-05-01T08:23:18.550Z,18.30
2023-05-01T08:25:50.936Z,18.90
2023-05-01T08:28:18.311Z,19.51
2023-05-01T08:30:44.821Z,20.45
2023-05-01T08:33:11.443Z,20.22
2023-05-01T08:35:38.322Z,19.59
2023-05-01T08:38:04.866Z,20.25
2023-05-01T08:40:38.112Z,20.35
2023-05-01T08:43:05.027Z,19.10
2023-05-01T08:45:37.565Z,19.17
2023-05-01T08:48:07.765Z,19.60
2023-05-01T08:50:36.530Z,19.73
2023-05-01T08:53:04.221Z,20.01
2023-05-01T08:55:32.178Z,19.93
2023-05-01T08:57:59.853Z,20.22
2023-05-01T09:00:29.071Z,19.80
2023-05-01T09:02:56.290Z,19.33
2023-05-01T09:05:22.748Z,19.05
2023-05-01T09:07:49.463Z,19.42
2023-05-01T09:10:18.415Z,19.25
2023-05-01T09:12:47.601Z,19.71
2023-05-01T09:15:14.299Z,19.41
2023-05-01T09:17:42.433Z,19.22
2023-05-01T09:20:09.969Z,20.09
2023-05-01T09:22:36.857Z,20.65
2023-05-01T09:25:04.142Z,20.29
2023-05-01T09:27:35.422Z,21.42
2023-05-01T09:30:02.119Z,21.63
2023-05-01T09:32:28.858Z,22.07
2023-05-01T09:34:56.830Z,20.92
2023-05-01T09:37:28.556Z,21.16
2023-05-01T09:40:27.220Z,21.86
2023-05-01T09:42:56.475Z,21.47
2023-05-01T09:45:23.592Z,21.58
2023-05-01T09:47:50.488Z,22.11
2023-05-01T09:50:34.285Z,22.56
2023-05-01T09:53:01.959Z,21.66
2023-05-01T09:55:28.423Z,21.47
2023-05-01T09:57:54.862Z,21.63
2023-05-01T10:00:22.316Z,21.80
2023-05-01T10:02:49.959Z,23.20
2023-05-01T10:05:17.110Z,22.80
2023-05-01T10:08:01.059Z,21.86
2023-05-01T10:10:28.265Z,21.79
2023-05-01T10:12:55.227Z,21.69
2023-05-01T10:15:26.782Z,22.21
2023-05-01T10:17:54.589Z,21.80
2023-05-01T10:20:22.505Z,20.85
2023-05-01T10:22:49.848Z,22.70
2023-05-01T10:25:17.739Z,23.26
2023-05-01T10:27:44.413Z,22.97
2023-05-01T10:30:11.397Z,23.01
2023-05-01T10:32:38.777Z,22.18
2023-05-01T10:35:14.498Z,21.95
2023-05-01T10:37:47.538Z,22.62
2023-05-01T10:40:39.135Z,22.94
2023-05-01T10:43:26.152Z,23.04
2023-05-01T10:45:53.282Z,23.35
2023-05-01T10:48:38.588Z,22.24
2023-05-01T10:51:27.467Z,23.61
2023-05-01T10:54:13.392Z,23.51
2023-05-01T10:56:43.025Z,22.02
2023-05-01T10:59:09.723Z,21.94
2023-05-01T11:01:40.865Z,21.27
2023-05-01T11:04:27.910Z,20.43
2023-05-01T11:07:08.373Z,21.15
2023-05-01T11:09:46.934Z,21.55
2023-05-01T11:12:14.133Z,21.60
2023-05-01T11:15:03.628Z,21.02
2023-05-01T11:17:42.969Z,20.68
2023-05-01T11:20:11.095Z,21.52
2023-05-01T11:22:42.777Z,21.39
2023-05-01T11:25:20.648Z,21.72
2023-05-01T11:27:52.283Z,21.65
2023-05-01T11:30:19.046Z,21.96
2023-05-01T11:32:48.717Z,22.53
2023-05-01T11:35:20.876Z,23.16
2023-05-01T11:37:48.492Z,23.10
2023-05-01T11:40:27.032Z,22.43
2023-05-01T11:43:07.201Z,22.63
2023-05-01T11:45:36.620Z,22.27
2023-05-01T11:48:04.851Z,22.30
2023-05-01T11:50:36.316Z,23.01
2023-05-01T11:53:04.248Z,22.27
2023-05-01T11:55:34.495Z,21.17
2023-05-01T11:58:01.968Z,22.17
2023-05-01T12:00:30.120Z,22.38
2023-05-01T12:02:58.910Z,22.78
2023-05-01T12:05:26.815Z,22.17
2023-05-01T12:08:23.814Z,21.26
2023-05-01T12:10:58.889Z,21.53
2023-05-01T12:13:26.939Z,21.85
2023-05-01T12:15:54.736Z,22.62
2023-05-01T12:18:21.916Z,23.20
2023-05-01T12:20:54.284Z,22.88
2023-05-01T12:23:31.868Z,23.52
2023-05-01T12:25:58.581Z,22.43
2023-05-01T12:28:27.518Z,22.51
2023-05-01T12:30:57.813Z,22.60
2023-05-01T12:33:24.385Z,21.86
2023-05-01T12:35:51.418Z,22.97
2023-05-01T12:38:19.872Z,22.99
2023-05-01T12:40:57.651Z,23.48
2023-05-01T12:43:32.405Z,24.18
2023-05-01T12:45:59.843Z,22.65
2023-05-01T12:48:26.724Z,21.83
2023-05-01T12:50:57.002Z,22.04
2023-05-01T12:53:26.439Z,22.12
2023-05-01T12:55:59.478Z,22.22
2023-05-01T12:58:36.944Z,22.07
2023-05-01T13:01:03.513Z,22.30
2023-05-01T13:03:30.581Z,22.58
2023-05-01T13:05:59.401Z,22.52
2023-05-01T13:08:36.138Z,21.73
2023-05-01T13:11:13.622Z,21.60
2023-05-01T13:13:40.841Z,21.32
2023-05-01T13:16:12.841Z,21.05
2023-05-01T13:18:51.356Z,20.52
2023-05-01T13:21:22.364Z,21.11
2023-05-01T13:23:59.774Z,21.64
2023-05-01T13:26:31.386Z,21.60
2023-05-01T13:28:58.719Z,21.24
2023-05-01T13:31:25.703Z,22.03
2023-05-01T13:33:54.228Z,22.20
2023-05-01T13:36:26.311Z,21.81
2023-05-01T13:38:56.269Z,21.50
2023-05-01T13:41:25.793Z,21.34
2023-05-01T13:43:56.419Z,21.14
2023-05-01T13:46:23.920Z,21.54
2023-05-01T13:48:50.772Z,21.42
2023-05-01T13:51:22.798Z,21.14
2023-05-01T13:53:50.246Z,21.50
2023-05-01T13:56:16.730Z,20.86
2023-05-01T13:58:43.200Z,20.97
2023-05-01T14:01:18.961Z,20.97
2023-05-01T14:03:45.890Z,21.62
2023-05-01T14:06:14.805Z,21.52
2023-05-01T14:08:41.781Z,21.21
2023-05-01T14:11:09.487Z,20.87
2023-05-01T14:13:36.340Z,21.10
2023-05-01T14:16:10.360Z,21.16
2023-05-01T14:18:44.970Z,21.47
2023-05-01T14:21:16.706Z,21.98
2023-05-01T14:23:43.250Z,22.03
2023-05-01T14:26:11.513Z,22.41
2023-05-01T14:28:43.520Z,22.52
2023-05-01T14:31:15.991Z,22.12
2023-05-01T14:33:45.822Z,21.55
2023-05-01T14:36:13.367Z,21.34
2023-05-01T14:38:40.622Z,21.31
2023-05-01T14:41:08.913Z,21.00
2023-05-01T14:43:41.018Z,20.66
2023-05-01T14:46:07.539Z,20.67
2023-05-01T14:48:41.321Z,20.80
2023-05-01T14:51:12.596Z,20.77
2023-05-01T14:53:41.930Z,20.90
2023-05-01T14:56:08.739Z,20.66
2023-05-01T14:58:35.586Z,20.77
2023-05-01T15:01:04.911Z,20.89
2023-05-01T15:03:32.873Z,20.91
2023-05-01T15:05:59.671Z,20.77
2023-05-01T15:08:26.249Z,20.33
2023-05-01T15:10:52.990Z,20.16
2023-05-01T15:13:19.828Z,20.10
2023-05-01T15:15:46.308Z,20.09
2023-05-01T15:18:12.820Z,20.11
2023-05-01T15:20:39.393Z,20.08
2023-05-01T15:23:05.892Z,20.02
2023-05-01T15:25:32.564Z,19.99
2023-05-01T15:27:58.964Z,20.02
2023-05-01T15:30:25.909Z,20.01
2023-05-01T15:32:55.480Z,19.88
2023-05-01T15:35:23.600Z,20.02
2023-05-01T15:37:50.583Z,20.04
2023-05-01T15:40:17.189Z,20.10
2023-05-01T15:42:45.490Z,20.00
2023-05-01T15:45:11.886Z,19.98
2023-05-01T15:47:38.441Z,20.08
2023-05-01T15:50:09.362Z,20.04
2023-05-01T15:52:35.891Z,20.01
2023-05-01T15:55:02.356Z,19.97
2023-05-01T15:57:29.771Z,19.91
2023-05-01T15:59:56.676Z,19.76
2023-05-01T16:02:23.278Z,19.80
2023-05-01T16:04:49.775Z,19.60
2023-05-01T16:07:16.317Z,19.62
2023-05-01T16:09:42.937Z,19.62
2023-05-01T16:12:09.406Z,19.64
2023-05-01T16:14:39.373Z,19.59
2023-05-01T16:17:06.595Z,19.53
2023-05-01T16:19:33.095Z,19.37
2023-05-01T16:22:03.487Z,19.37
2023-05-01T16:24:34.403Z,19.44
2023-05-01T16:27:00.977Z,19.36
2023-05-01T16:29:27.865Z,19.34
2023-05-01T16:31:54.424Z,19.31
2023-05-01T16:34:25.406Z,19.24
2023-05-01T16:36:52.080Z,19.29
2023-05-01T16:39:21.520Z,19.24
2023-05-01T16:41:50.404Z,19.17
2023-05-01T16:44:18.846Z,19.06
2023-05-01T16:47:03.468Z,19.02
2023-05-01T16:49:30.105Z,19.05
2023-05-01T16:51:57.400Z,18.94
2023-05-01T16:54:25.209Z,18.97
2023-05-01T16:56:51.832Z,19.03
2023-05-01T16:59:18.622Z,18.96
2023-05-01T17:01:45.459Z,18.90
2023-05-01T17:04:13.238Z,18.84
2023-05-01T17:06:39.832Z,18.73
2023-05-01T17:09:06.431Z,18.92
2023-05-01T17:11:32.916Z,18.86
2023-05-01T17:13:59.445Z,18.75
2023-05-01T17:16:26.123Z,18.73
2023-05-01T17:18:52.921Z,18.69
2023-05-01T17:21:19.544Z,18.70
2023-05-01T17:23:46.113Z,18.71
2023-05-01T17:26:15.898Z,18.60
2023-05-01T17:28:44.765Z,18.60
2023-05-01T17:31:11.408Z,18.59
2023-05-01T17:33:38.092Z,18.56
2023-05-01T17:36:08.851Z,18.53
2023-05-01T17:38:40.070Z,18.52
2023-05-01T17:41:07.076Z,18.45
2023-05-01T17:43:33.767Z,18.41
2023-05-01T17:46:04.906Z,18.32
2023-05-01T17:48:31.469Z,18.19
2023-05-01T17:50:58.082Z,18.24
2023-05-01T17:53:25.336Z,18.05
2023-05-01T17:55:54.711Z,17.99
2023-05-01T17:58:21.933Z,17.96
2023-05-01T18:00:49.080Z,17.90
2023-05-01T18:03:15.888Z,17.83
2023-05-01T18:05:42.716Z,17.85
2023-05-01T18:08:10.911Z,17.75
2023-05-01T18:10:41.233Z,17.75
2023-05-01T18:13:07.844Z,17.71
2023-05-01T18:15:34.647Z,17.64
2023-05-01T18:18:01.651Z,17.51
2023-05-01T18:20:29.396Z,17.45
2023-05-01T18:22:56.308Z,17.34
2023-05-01T18:25:23.153Z,17.29
2023-05-01T18:27:49.714Z,17.19
2023-05-01T18:30:19.044Z,17.08
2023-05-01T18:32:49.269Z,16.95
2023-05-01T18:35:17.285Z,16.86
2023-05-01T18:37:44.349Z,16.79
2023-05-01T18:40:11.591Z,16.76
2023-05-01T18:42:41.063Z,16.66
2023-05-01T18:45:08.345Z,16.76
2023-05-01T18:47:34.829Z,16.77
2023-05-01T18:50:01.843Z,16.70
2023-05-01T18:52:29.829Z,16.67
2023-05-01T18:54:56.387Z,16.55
2023-05-01T18:57:22.939Z,16.57
2023-05-01T18:59:49.781Z,16.57
2023-05-01T19:02:16.539Z,16.59
2023-05-01T19:04:56.619Z,16.60
2023-05-01T19:07:28.192Z,16.57
2023-05-01T19:09:55.791Z,16.62
2023-05-01T19:12:22.991Z,16.50
2023-05-01T19:14:49.475Z,16.46
2023-05-01T19:17:15.921Z,16.54
2023-05-01T19:19:42.865Z,16.46
2023-05-01T19:22:09.322Z,16.47
2023-05-01T19:24:36.276Z,16.46
2023-05-01T19:27:03.813Z,16.41
2023-05-01T19:29:31.748Z,16.43
2023-05-01T19:32:03.397Z,16.37
2023-05-01T19:34:30.052Z,16.39
2023-05-01T19:36:56.832Z,16.37
2023-05-01T19:39:23.913Z,16.39
2023-05-01T19:41:50.696Z,16.34
2023-05-01T19:44:17.507Z,16.31
2023-05-01T19:46:44.372Z,16.31
2023-05-01T19:49:10.926Z,16.30
2023-05-01T19:51:37.391Z,16.32
2023-05-01T19:54:04.761Z,16.29
2023-05-01T19:56:31.673Z,16.21
2023-05-01T19:58:58.550Z,16.18
2023-05-01T20:01:25.164Z,16.22
2023-05-01T20:03:51.718Z,16.21
2023-05-01T20:06:18.195Z,16.19
2023-05-01T20:08:44.658Z,16.18
2023-05-01T20:11:11.289Z,16.17
2023-05-01T20:13:37.787Z,16.15
2023-05-01T20:16:04.526Z,16.11
2023-05-01T20:18:31.095Z,15.91
2023-05-01T20:20:57.899Z,15.83
2023-05-01T20:23:24.794Z,15.72
2023-05-01T20:25:55.008Z,15.75
2023-05-01T20:28:22.074Z,15.63
2023-05-01T20:30:48.770Z,15.62
2023-05-01T20:33:17.065Z,15.47
2023-05-01T20:35:43.805Z,15.36
2023-05-01T20:38:10.233Z,15.32
2023-05-01T20:40:40.738Z,15.33
2023-05-01T20:43:07.311Z,15.22
2023-05-01T20:45:33.886Z,15.01
2023-05-01T20:48:00.825Z,14.92
2023-05-01T20:50:27.702Z,14.88
2023-05-01T20:52:55.131Z,14.59
2023-05-01T20:55:22.846Z,14.48
2023-05-01T20:57:49.344Z,14.44
2023-05-01T21:00:15.887Z,14.36
2023-05-01T21:02:42.662Z,14.31
2023-05-01T21:05:10.261Z,14.29
2023-05-01T21:07:38.072Z,14.24
2023-05-01T21:10:10.120Z,14.22
2023-05-01T21:12:37.347Z,14.15
2023-05-01T21:15:04.317Z,14.09
2023-05-01T21:17:35.911Z,14.07
2023-05-01T21:20:05.599Z,14.04
2023-05-01T21:22:32.094Z,13.98
2023-05-01T21:25:00.238Z,13.96
2023-05-01T21:27:27.315Z,13.92
2023-05-01T21:29:59.131Z,13.83
2023-05-01T21:32:33.730Z,13.83
2023-05-01T21:35:00.681Z,13.75
2023-05-01T21:37:27.682Z,13.74
2023-05-01T21:39:54.242Z,13.75
2023-05-01T21:42:21.040Z,13.77
2023-05-01T21:44:47.472Z,13.80
2023-05-01T21:47:15.457Z,13.81
2023-05-01T21:49:41.963Z,13.83
2023-05-01T21:52:08.833Z,13.91
2023-05-01T21:54:38.518Z,13.90
2023-05-01T21:57:07.564Z,13.91
2023-05-01T21:59:36.379Z,13.90
2023-05-01T22:02:12.167Z,13.83
2023-05-01T22:04:38.750Z,13.84
2023-05-01T22:07:05.826Z,13.77
2023-05-01T22:09:33.311Z,13.76
2023-05-01T22:11:59.731Z,13.77
2023-05-01T22:14:33.626Z,13.73
2023-05-01T22:17:06.585Z,13.79
2023-05-01T22:19:33.068Z,13.77
2023-05-01T22:21:59.563Z,13.68
2023-05-01T22:24:26.056Z,13.55
2023-05-01T22:26:52.564Z,13.55
2023-05-01T22:29:19.010Z,13.52
2023-05-01T22:31:46.537Z,13.51
2023-05-01T22:34:13.321Z,13.53
2023-05-01T22:36:39.768Z,13.54
2023-05-01T22:39:06.306Z,13.51
2023-05-01T22:41:33.186Z,13.47
2023-05-01T22:44:00.842Z,13.37
2023-05-01T22:46:28.933Z,13.37
2023-05-01T22:48:55.535Z,13.33
2023-05-01T22:51:22.145Z,13.34
2023-05-01T22:53:48.533Z,13.41
2023-05-01T22:56:15.259Z,13.46
2023-05-01T22:58:42.677Z,13.51
2023-05-01T23:01:09.260Z,13.51
2023-05-01T23:03:38.635Z,13.52
2023-05-01T23:06:06.421Z,13.47
2023-05-01T23:08:34.051Z,13.49
2023-05-01T23:11:00.546Z,13.35
2023-05-01T23:13:28.215Z,13.31
2023-05-01T23:15:54.745Z,13.30
2023-05-01T23:18:30.665Z,13.23
2023-05-01T23:20:57.418Z,13.21
2023-05-01T23:23:29.379Z,13.33
2023-05-01T23:25:56.569Z,13.29
2023-05-01T23:28:25.022Z,13.23
2023-05-01T23:31:18.673Z,13.30
2023-05-01T23:33:45.341Z,13.27
2023-05-01T23:36:13.021Z,13.29
2023-05-01T23:38:40.364Z,13.29
2023-05-01T23:41:07.950Z,13.36
2023-05-01T23:43:38.606Z,13.31
2023-05-01T23:46:06.576Z,13.23
2023-05-01T23:48:36.292Z,13.17
2023-05-01T23:51:02.950Z,13.18
2023-05-01T23:53:29.575Z,13.23
2023-05-01T23:55:56.353Z,13.13
2023-05-01T23:58:23.460Z,13.18
